Time,TemperatureF,DewpointF,PressureIn,WindDirection,WindDirectionDegrees,WindSpeedMPH,WindSpeedGustMPH,Humidity,HourlyPrecipIn,Conditions,Clouds,dailyrainin,SoftwareType,DateUTC
2014-12-22 00:23:00,30.0,27.0,30.13,East,79,3.0,3.0,89,0.00,,,0.00,,2014-12-22 05:23:00,
2014-12-22 00:43:00,30.0,27.0,30.13,ENE,77,2.0,3.0,90,0.00,,,0.00,,2014-12-22 05:43:00,
2014-12-22 00:53:00,30.0,27.0,30.11,ENE,77,3.0,4.0,89,0.00,,,0.00,,2014-12-22 05:53:00,
2014-12-22 01:12:00,30.0,27.0,30.11,East,92,3.0,4.0,89,0.00,,,0.00,,2014-12-22 06:12:00,
2014-12-22 01:22:00,30.0,27.0,30.10,East,90,3.0,5.0,89,0.00,,,0.00,,2014-12-22 06:22:00,
2014-12-22 01:42:00,29.0,26.0,30.10,East,79,4.0,5.0,90,0.00,,,0.00,,2014-12-22 06:42:00,
2014-12-22 01:52:00,30.0,27.0,30.09,East,89,3.0,4.0,89,0.00,,,0.00,,2014-12-22 06:52:00,
2014-12-22 02:12:00,30.0,27.0,30.09,ENE,57,3.0,4.0,89,0.00,,,0.00,,2014-12-22 07:12:00,
2014-12-22 02:22:00,30.0,27.0,30.09,SE,142,0.0,4.0,88,0.00,,,0.00,,2014-12-22 07:22:00,
2014-12-22 02:42:00,30.0,27.0,30.09,East,83,2.0,3.0,89,0.00,,,0.00,,2014-12-22 07:42:00,
2014-12-22 02:52:00,30.0,27.0,30.09,ENE,77,1.0,2.0,89,0.00,,,0.00,,2014-12-22 07:52:00,
2014-12-22 03:22:00,31.0,28.0,30.08,East,97,2.0,4.0,88,0.00,,,0.00,,2014-12-22 08:22:00,
2014-12-22 03:42:00,31.0,28.0,30.07,East,101,3.0,4.0,88,0.00,,,0.00,,2014-12-22 08:42:00,
2014-12-22 03:52:00,30.0,27.0,30.08,East,79,2.0,4.0,87,0.00,,,0.00,,2014-12-22 08:52:00,
2014-12-22 09:12:00,35.0,31.0,30.03,ENE,75,3.0,4.0,84,0.00,,,0.00,,2014-12-22 14:12:00,
2014-12-22 09:22:00,36.0,32.0,30.03,East,89,3.0,4.0,84,0.00,,,0.00,,2014-12-22 14:22:00,
2014-12-22 09:42:00,37.0,32.0,30.03,ENE,76,2.0,4.0,82,0.00,,,0.00,,2014-12-22 14:42:00,
2014-12-22 09:52:00,38.0,32.0,30.03,East,79,3.0,4.0,80,0.00,,,0.00,,2014-12-22 14:52:00,
2014-12-22 10:22:00,41.0,35.0,30.03,ESE,121,2.0,4.0,78,0.00,,,0.00,,2014-12-22 15:22:00,
2014-12-22 10:44:00,42.0,36.0,30.03,SE,128,2.0,4.0,78,0.00,,,0.00,,2014-12-22 15:44:00,
2014-12-22 10:54:00,43.0,36.0,30.03,SE,141,0.0,3.0,77,0.00,,,0.00,,2014-12-22 15:54:00,
2014-12-22 11:23:00,45.0,38.0,30.01,SSE,155,3.0,4.0,75,0.00,,,0.00,,2014-12-22 16:23:00,
2014-12-22 11:44:00,46.0,38.0,30.00,ESE,109,3.0,6.0,73,0.00,,,0.00,,2014-12-22 16:44:00,
2014-12-22 11:53:00,47.0,38.0,29.99,East,94,2.0,5.0,72,0.00,,,0.00,,2014-12-22 16:53:00,
2014-12-22 12:12:00,47.0,39.0,29.98,SE,145,3.0,4.0,73,0.00,,,0.00,,2014-12-22 17:12:00,
2014-12-22 12:22:00,48.0,39.0,29.97,SSE,158,2.0,4.0,71,0.00,,,0.00,,2014-12-22 17:22:00,
2014-12-22 12:42:00,50.0,41.0,29.96,SE,129,3.0,5.0,70,0.00,,,0.00,,2014-12-22 17:42:00,
2014-12-22 12:53:00,51.0,41.0,29.95,SSW,198,2.0,6.0,69,0.00,,,0.00,,2014-12-22 17:53:00,
2014-12-22 13:23:00,52.0,41.0,29.92,ESE,108,3.0,5.0,67,0.00,,,0.00,,2014-12-22 18:23:00,
2014-12-22 13:43:00,51.0,41.0,29.92,SSE,164,2.0,6.0,68,0.00,,,0.00,,2014-12-22 18:43:00,
2014-12-22 13:54:00,51.0,42.0,29.91,South,172,2.0,5.0,70,0.00,,,0.00,,2014-12-22 18:54:00,
2014-12-22 14:22:00,50.0,41.0,29.89,ESE,113,3.0,7.0,71,0.00,,,0.00,,2014-12-22 19:22:00,
2014-12-22 14:42:00,50.0,41.0,29.88,ESE,110,4.0,6.0,71,0.00,,,0.00,,2014-12-22 19:42:00,
2014-12-22 14:52:00,50.0,41.0,29.88,SE,129,4.0,8.0,72,0.00,,,0.00,,2014-12-22 19:52:00,
2014-12-22 15:22:00,50.0,42.0,29.86,ENE,70,6.0,7.0,73,0.00,,,0.00,,2014-12-22 20:22:00,
2014-12-22 15:42:00,50.0,42.0,29.84,East,90,6.0,11.0,74,0.00,,,0.00,,2014-12-22 20:42:00,
2014-12-22 15:53:00,50.0,42.0,29.83,ENE,74,6.0,9.0,74,0.00,,,0.00,,2014-12-22 20:53:00,
2014-12-22 16:12:00,49.0,41.0,29.84,NE,48,5.0,8.0,75,0.00,,,0.00,,2014-12-22 21:12:00,
2014-12-22 16:22:00,49.0,41.0,29.83,ENE,63,4.0,7.0,75,0.00,,,0.00,,2014-12-22 21:22:00,
2014-12-22 16:53:00,49.0,42.0,29.82,ENE,67,4.0,8.0,76,0.00,,,0.00,,2014-12-22 21:53:00,
2014-12-22 17:24:00,48.0,41.0,29.83,East,82,3.0,5.0,77,0.00,,,0.00,,2014-12-22 22:24:00,
2014-12-22 17:42:00,48.0,41.0,29.83,East,81,3.0,4.0,77,0.00,,,0.00,,2014-12-22 22:42:00,
2014-12-22 17:52:00,48.0,41.0,29.81,ENE,73,4.0,6.0,77,0.00,,,0.00,,2014-12-22 22:52:00,
2014-12-22 18:12:00,48.0,41.0,29.80,East,87,6.0,9.0,77,0.00,,,0.00,,2014-12-22 23:12:00,
2014-12-22 18:22:00,48.0,41.0,29.80,East,90,5.0,10.0,77,0.00,,,0.00,,2014-12-22 23:22:00,
2014-12-22 18:42:00,48.0,41.0,29.81,East,79,6.0,8.0,77,0.00,,,0.00,,2014-12-22 23:42:00,
2014-12-22 18:53:00,48.0,41.0,29.80,ESE,106,6.0,8.0,77,0.00,,,0.00,,2014-12-22 23:53:00,
2014-12-22 19:12:00,48.0,41.0,29.80,East,94,6.0,9.0,77,0.00,,,0.00,,2014-12-23 00:12:00,
2014-12-22 19:22:00,48.0,41.0,29.80,ESE,113,7.0,9.0,77,0.00,,,0.00,,2014-12-23 00:22:00,
2014-12-22 19:42:00,48.0,41.0,29.80,ESE,115,7.0,9.0,77,0.00,,,0.00,,2014-12-23 00:42:00,
2014-12-22 19:52:00,48.0,41.0,29.79,ENE,78,7.0,10.0,77,0.00,,,0.00,,2014-12-23 00:52:00,
2014-12-22 20:12:00,48.0,41.0,29.79,ENE,78,3.0,8.0,77,0.00,,,0.00,,2014-12-23 01:12:00,
2014-12-22 20:22:00,48.0,41.0,29.78,East,94,7.0,8.0,77,0.00,,,0.00,,2014-12-23 01:22:00,
2014-12-22 20:42:00,48.0,41.0,29.78,East,87,7.0,8.0,77,0.00,,,0.00,,2014-12-23 01:42:00,
2014-12-22 20:52:00,47.0,40.0,29.78,East,91,7.0,9.0,77,0.00,,,0.00,,2014-12-23 01:52:00,
2014-12-22 21:12:00,47.0,41.0,29.78,ESE,103,7.0,10.0,78,0.00,,,0.00,,2014-12-23 02:12:00,
2014-12-22 21:22:00,47.0,41.0,29.77,East,91,7.0,9.0,78,0.00,,,0.00,,2014-12-23 02:22:00,
2014-12-22 21:42:00,47.0,41.0,29.76,East,89,6.0,8.0,78,0.00,,,0.00,,2014-12-23 02:42:00,
2014-12-22 21:52:00,48.0,41.0,29.75,East,86,7.0,9.0,78,0.00,,,0.00,,2014-12-23 02:52:00,
2014-12-22 22:12:00,48.0,41.0,29.75,East,81,7.0,10.0,78,0.00,,,0.00,,2014-12-23 03:12:00,